sensor_id;sensor_type;location;lat;lon;timestamp;P1;durP1;ratioP1;P2;durP2;ratioP2
4460;SDS011;2243;48.812;9.232;2022-07-18T00:01:19;5.43;;;4.20;;
4460;SDS011;2243;48.812;9.232;2022-07-18T00:03:52;7.03;;;4.07;;
4460;SDS011;2243;48.812;9.232;2022-07-18T00:06:23;5.17;;;3.80;;
4460;SDS011;2243;48.812;9.232;2022-07-18T00:08:58;4.03;;;3.63;;
4460;SDS011;2243;48.812;9.232;2022-07-18T00:11:29;4.00;;;3.50;;
4460;SDS011;2243;48.812;9.232;2022-07-18T00:14:00;4.40;;;3.10;;
4460;SDS011;2243;48.812;9.232;2022-07-18T00:16:31;5.37;;;3.33;;
4460;SDS011;2243;48.812;9.232;2022-07-18T00:19:03;6.10;;;3.63;;
4460;SDS011;2243;48.812;9.232;2022-07-18T00:21:36;3.77;;;3.40;;
4460;SDS011;2243;48.812;9.232;2022-07-18T00:24:07;4.13;;;3.80;;
4460;SDS011;2243;48.812;9.232;2022-07-18T00:26:38;8.20;;;4.10;;
4460;SDS011;2243;48.812;9.232;2022-07-18T00:29:09;3.60;;;3.40;;
4460;SDS011;2243;48.812;9.232;2022-07-18T00:31:49;4.80;;;3.43;;
4460;SDS011;2243;48.812;9.232;2022-07-18T00:34:23;7.63;;;3.77;;
4460;SDS011;2243;48.812;9.232;2022-07-18T00:36:54;3.77;;;3.43;;
4460;SDS011;2243;48.812;9.232;2022-07-18T00:39:26;3.40;;;3.10;;
4460;SDS011;2243;48.812;9.232;2022-07-18T00:41:57;10.10;;;3.53;;
4460;SDS011;2243;48.812;9.232;2022-07-18T00:44:28;4.90;;;4.40;;
4460;SDS011;2243;48.812;9.232;2022-07-18T00:47:00;6.20;;;3.60;;
4460;SDS011;2243;48.812;9.232;2022-07-18T00:49:32;9.67;;;3.00;;
4460;SDS011;2243;48.812;9.232;2022-07-18T00:52:08;4.23;;;2.90;;
4460;SDS011;2243;48.812;9.232;2022-07-18T00:54:39;3.20;;;3.00;;
4460;SDS011;2243;48.812;9.232;2022-07-18T00:57:11;5.00;;;3.10;;
4460;SDS011;2243;48.812;9.232;2022-07-18T00:59:43;3.60;;;3.30;;
4460;SDS011;2243;48.812;9.232;2022-07-18T01:02:34;3.67;;;3.37;;
4460;SDS011;2243;48.812;9.232;2022-07-18T01:05:06;3.33;;;3.13;;
4460;SDS011;2243;48.812;9.232;2022-07-18T01:07:38;5.10;;;3.63;;
4460;SDS011;2243;48.812;9.232;2022-07-18T01:10:09;5.00;;;3.43;;
4460;SDS011;2243;48.812;9.232;2022-07-18T01:12:40;5.70;;;3.30;;
4460;SDS011;2243;48.812;9.232;2022-07-18T01:15:11;3.07;;;2.80;;
4460;SDS011;2243;48.812;9.232;2022-07-18T01:17:43;3.57;;;3.27;;
4460;SDS011;2243;48.812;9.232;2022-07-18T01:20:14;3.50;;;3.20;;
4460;SDS011;2243;48.812;9.232;2022-07-18T01:22:46;3.00;;;2.87;;
4460;SDS011;2243;48.812;9.232;2022-07-18T01:25:17;5.80;;;4.03;;
4460;SDS011;2243;48.812;9.232;2022-07-18T01:27:48;3.90;;;3.30;;
4460;SDS011;2243;48.812;9.232;2022-07-18T01:30:19;3.63;;;3.30;;
4460;SDS011;2243;48.812;9.232;2022-07-18T01:32:56;3.40;;;3.13;;
4460;SDS011;2243;48.812;9.232;2022-07-18T01:35:30;4.00;;;3.20;;
4460;SDS011;2243;48.812;9.232;2022-07-18T01:38:02;5.03;;;3.90;;
4460;SDS011;2243;48.812;9.232;2022-07-18T01:40:33;3.30;;;3.00;;
4460;SDS011;2243;48.812;9.232;2022-07-18T01:43:05;3.50;;;3.30;;
4460;SDS011;2243;48.812;9.232;2022-07-18T01:45:36;3.37;;;3.17;;
4460;SDS011;2243;48.812;9.232;2022-07-18T01:48:07;4.00;;;3.60;;
4460;SDS011;2243;48.812;9.232;2022-07-18T01:50:38;6.47;;;3.70;;
4460;SDS011;2243;48.812;9.232;2022-07-18T01:53:09;3.30;;;3.10;;
4460;SDS011;2243;48.812;9.232;2022-07-18T01:55:40;3.97;;;3.60;;
4460;SDS011;2243;48.812;9.232;2022-07-18T01:58:11;3.80;;;3.50;;
4460;SDS011;2243;48.812;9.232;2022-07-18T02:00:42;4.23;;;3.93;;
4460;SDS011;2243;48.812;9.232;2022-07-18T02:03:13;4.33;;;3.07;;
4460;SDS011;2243;48.812;9.232;2022-07-18T02:05:44;3.30;;;3.20;;
4460;SDS011;2243;48.812;9.232;2022-07-18T02:08:16;4.43;;;3.60;;
4460;SDS011;2243;48.812;9.232;2022-07-18T02:10:47;4.10;;;3.67;;
4460;SDS011;2243;48.812;9.232;2022-07-18T02:13:18;5.20;;;3.70;;
4460;SDS011;2243;48.812;9.232;2022-07-18T02:15:50;3.53;;;3.23;;
4460;SDS011;2243;48.812;9.232;2022-07-18T02:18:25;3.67;;;3.37;;
4460;SDS011;2243;48.812;9.232;2022-07-18T02:20:57;6.23;;;3.60;;
4460;SDS011;2243;48.812;9.232;2022-07-18T02:23:29;3.50;;;3.20;;
4460;SDS011;2243;48.812;9.232;2022-07-18T02:26:01;4.47;;;3.63;;
4460;SDS011;2243;48.812;9.232;2022-07-18T02:28:33;5.40;;;3.40;;
4460;SDS011;2243;48.812;9.232;2022-07-18T02:31:04;4.10;;;3.70;;
4460;SDS011;2243;48.812;9.232;2022-07-18T02:33:36;5.27;;;3.80;;
4460;SDS011;2243;48.812;9.232;2022-07-18T02:36:07;3.80;;;3.50;;
4460;SDS011;2243;48.812;9.232;2022-07-18T02:38:38;4.87;;;3.50;;
4460;SDS011;2243;48.812;9.232;2022-07-18T02:41:09;10.93;;;4.63;;
4460;SDS011;2243;48.812;9.232;2022-07-18T02:43:40;4.30;;;3.10;;
4460;SDS011;2243;48.812;9.232;2022-07-18T02:46:14;4.47;;;3.63;;
4460;SDS011;2243;48.812;9.232;2022-07-18T02:48:45;4.60;;;3.43;;
4460;SDS011;2243;48.812;9.232;2022-07-18T02:51:16;4.30;;;3.30;;
4460;SDS011;2243;48.812;9.232;2022-07-18T02:53:47;4.30;;;3.73;;
4460;SDS011;2243;48.812;9.232;2022-07-18T02:56:18;4.80;;;3.37;;
4460;SDS011;2243;48.812;9.232;2022-07-18T02:58:49;4.30;;;3.73;;
4460;SDS011;2243;48.812;9.232;2022-07-18T03:01:20;4.83;;;4.17;;
4460;SDS011;2243;48.812;9.232;2022-07-18T03:03:54;4.70;;;3.60;;
4460;SDS011;2243;48.812;9.232;2022-07-18T03:06:25;3.73;;;3.53;;
4460;SDS011;2243;48.812;9.232;2022-07-18T03:08:56;3.90;;;3.60;;
4460;SDS011;2243;48.812;9.232;2022-07-18T03:11:27;4.10;;;3.80;;
4460;SDS011;2243;48.812;9.232;2022-07-18T03:13:58;7.50;;;3.60;;
4460;SDS011;2243;48.812;9.232;2022-07-18T03:16:29;3.47;;;3.17;;
4460;SDS011;2243;48.812;9.232;2022-07-18T03:19:00;5.27;;;3.90;;
4460;SDS011;2243;48.812;9.232;2022-07-18T03:21:32;4.13;;;3.17;;
4460;SDS011;2243;48.812;9.232;2022-07-18T03:24:03;8.17;;;4.17;;
4460;SDS011;2243;48.812;9.232;2022-07-18T03:26:35;6.00;;;4.20;;
4460;SDS011;2243;48.812;9.232;2022-07-18T03:29:06;3.93;;;3.63;;
4460;SDS011;2243;48.812;9.232;2022-07-18T03:31:37;5.77;;;3.97;;
4460;SDS011;2243;48.812;9.232;2022-07-18T03:34:08;6.60;;;4.00;;
4460;SDS011;2243;48.812;9.232;2022-07-18T03:36:39;4.27;;;3.40;;
4460;SDS011;2243;48.812;9.232;2022-07-18T03:39:11;10.43;;;3.70;;
4460;SDS011;2243;48.812;9.232;2022-07-18T03:41:42;12.03;;;4.00;;
4460;SDS011;2243;48.812;9.232;2022-07-18T03:44:13;4.37;;;3.60;;
4460;SDS011;2243;48.812;9.232;2022-07-18T03:46:44;4.10;;;3.70;;
4460;SDS011;2243;48.812;9.232;2022-07-18T03:49:15;4.50;;;3.83;;
4460;SDS011;2243;48.812;9.232;2022-07-18T03:51:46;4.63;;;3.90;;
4460;SDS011;2243;48.812;9.232;2022-07-18T03:54:17;6.00;;;4.60;;
4460;SDS011;2243;48.812;9.232;2022-07-18T03:56:49;10.00;;;4.20;;
4460;SDS011;2243;48.812;9.232;2022-07-18T03:59:21;4.90;;;3.63;;
4460;SDS011;2243;48.812;9.232;2022-07-18T04:01:52;3.93;;;3.53;;
4460;SDS011;2243;48.812;9.232;2022-07-18T04:04:22;4.00;;;3.20;;
4460;SDS011;2243;48.812;9.232;2022-07-18T04:06:57;4.63;;;3.40;;
4460;SDS011;2243;48.812;9.232;2022-07-18T04:09:30;3.10;;;2.90;;
4460;SDS011;2243;48.812;9.232;2022-07-18T04:12:01;5.47;;;3.20;;
4460;SDS011;2243;48.812;9.232;2022-07-18T04:14:33;7.00;;;3.90;;
4460;SDS011;2243;48.812;9.232;2022-07-18T04:17:04;5.33;;;3.30;;
4460;SDS011;2243;48.812;9.232;2022-07-18T04:19:34;3.97;;;3.57;;
4460;SDS011;2243;48.812;9.232;2022-07-18T04:22:05;3.20;;;3.00;;
4460;SDS011;2243;48.812;9.232;2022-07-18T04:24:37;5.73;;;3.60;;
4460;SDS011;2243;48.812;9.232;2022-07-18T04:27:08;5.73;;;3.47;;
4460;SDS011;2243;48.812;9.232;2022-07-18T04:29:38;7.30;;;3.73;;
4460;SDS011;2243;48.812;9.232;2022-07-18T04:32:09;6.00;;;4.57;;
4460;SDS011;2243;48.812;9.232;2022-07-18T04:34:40;6.33;;;3.73;;
4460;SDS011;2243;48.812;9.232;2022-07-18T04:37:11;7.93;;;3.47;;
4460;SDS011;2243;48.812;9.232;2022-07-18T04:39:42;9.10;;;3.37;;
4460;SDS011;2243;48.812;9.232;2022-07-18T04:42:13;4.63;;;3.80;;
4460;SDS011;2243;48.812;9.232;2022-07-18T04:44:44;5.97;;;4.13;;
4460;SDS011;2243;48.812;9.232;2022-07-18T04:47:15;4.30;;;4.00;;
4460;SDS011;2243;48.812;9.232;2022-07-18T04:49:46;5.00;;;4.60;;
4460;SDS011;2243;48.812;9.232;2022-07-18T04:52:18;5.93;;;4.87;;
4460;SDS011;2243;48.812;9.232;2022-07-18T04:54:50;8.93;;;5.70;;
4460;SDS011;2243;48.812;9.232;2022-07-18T04:57:22;11.23;;;5.87;;
4460;SDS011;2243;48.812;9.232;2022-07-18T04:59:53;13.17;;;5.90;;
4460;SDS011;2243;48.812;9.232;2022-07-18T05:02:24;8.07;;;5.80;;
4460;SDS011;2243;48.812;9.232;2022-07-18T05:04:57;5.83;;;4.70;;
4460;SDS011;2243;48.812;9.232;2022-07-18T05:07:28;6.77;;;4.93;;
4460;SDS011;2243;48.812;9.232;2022-07-18T05:09:59;5.00;;;4.50;;
4460;SDS011;2243;48.812;9.232;2022-07-18T05:12:31;6.10;;;4.83;;
4460;SDS011;2243;48.812;9.232;2022-07-18T05:15:04;8.83;;;4.40;;
4460;SDS011;2243;48.812;9.232;2022-07-18T05:17:38;6.73;;;4.40;;
4460;SDS011;2243;48.812;9.232;2022-07-18T05:20:11;7.17;;;4.77;;
4460;SDS011;2243;48.812;9.232;2022-07-18T05:22:48;4.90;;;4.50;;
4460;SDS011;2243;48.812;9.232;2022-07-18T05:25:22;5.17;;;4.67;;
4460;SDS011;2243;48.812;9.232;2022-07-18T05:27:53;8.33;;;5.00;;
4460;SDS011;2243;48.812;9.232;2022-07-18T05:30:24;4.70;;;4.20;;
4460;SDS011;2243;48.812;9.232;2022-07-18T05:32:55;10.03;;;4.53;;
4460;SDS011;2243;48.812;9.232;2022-07-18T05:35:26;5.33;;;4.83;;
4460;SDS011;2243;48.812;9.232;2022-07-18T05:37:58;8.07;;;4.33;;
4460;SDS011;2243;48.812;9.232;2022-07-18T05:40:29;9.60;;;5.00;;
4460;SDS011;2243;48.812;9.232;2022-07-18T05:43:00;9.20;;;4.60;;
4460;SDS011;2243;48.812;9.232;2022-07-18T05:45:31;8.37;;;5.00;;
4460;SDS011;2243;48.812;9.232;2022-07-18T05:48:03;6.87;;;4.50;;
4460;SDS011;2243;48.812;9.232;2022-07-18T05:50:35;4.27;;;3.60;;
4460;SDS011;2243;48.812;9.232;2022-07-18T05:53:06;7.20;;;4.30;;
4460;SDS011;2243;48.812;9.232;2022-07-18T05:55:37;6.83;;;4.23;;
4460;SDS011;2243;48.812;9.232;2022-07-18T05:58:08;4.67;;;4.37;;
4460;SDS011;2243;48.812;9.232;2022-07-18T06:00:39;6.27;;;4.80;;
4460;SDS011;2243;48.812;9.232;2022-07-18T06:03:10;4.70;;;4.30;;
4460;SDS011;2243;48.812;9.232;2022-07-18T06:05:42;4.77;;;4.37;;
4460;SDS011;2243;48.812;9.232;2022-07-18T06:08:13;5.40;;;4.40;;
4460;SDS011;2243;48.812;9.232;2022-07-18T06:10:44;10.20;;;4.47;;
4460;SDS011;2243;48.812;9.232;2022-07-18T06:13:16;8.07;;;4.73;;
4460;SDS011;2243;48.812;9.232;2022-07-18T06:15:47;9.90;;;4.47;;
4460;SDS011;2243;48.812;9.232;2022-07-18T06:18:18;4.00;;;3.70;;
4460;SDS011;2243;48.812;9.232;2022-07-18T06:20:49;4.97;;;4.47;;
4460;SDS011;2243;48.812;9.232;2022-07-18T06:23:21;5.47;;;4.20;;
4460;SDS011;2243;48.812;9.232;2022-07-18T06:25:52;4.10;;;3.80;;
4460;SDS011;2243;48.812;9.232;2022-07-18T06:28:23;6.67;;;3.90;;
4460;SDS011;2243;48.812;9.232;2022-07-18T06:30:55;7.17;;;3.83;;
4460;SDS011;2243;48.812;9.232;2022-07-18T06:33:27;6.00;;;4.50;;
4460;SDS011;2243;48.812;9.232;2022-07-18T06:35:58;3.37;;;3.07;;
4460;SDS011;2243;48.812;9.232;2022-07-18T06:38:29;3.80;;;3.47;;
4460;SDS011;2243;48.812;9.232;2022-07-18T06:41:02;6.70;;;3.70;;
4460;SDS011;2243;48.812;9.232;2022-07-18T06:43:33;4.97;;;3.33;;
4460;SDS011;2243;48.812;9.232;2022-07-18T06:46:04;7.30;;;3.83;;
4460;SDS011;2243;48.812;9.232;2022-07-18T06:48:36;3.73;;;3.53;;
4460;SDS011;2243;48.812;9.232;2022-07-18T06:51:07;3.43;;;3.33;;
4460;SDS011;2243;48.812;9.232;2022-07-18T06:53:38;4.43;;;4.13;;
4460;SDS011;2243;48.812;9.232;2022-07-18T06:56:09;4.67;;;4.10;;
4460;SDS011;2243;48.812;9.232;2022-07-18T06:58:40;5.23;;;3.67;;
4460;SDS011;2243;48.812;9.232;2022-07-18T07:01:11;4.23;;;3.83;;
4460;SDS011;2243;48.812;9.232;2022-07-18T07:03:42;6.40;;;5.80;;
4460;SDS011;2243;48.812;9.232;2022-07-18T07:06:13;4.20;;;4.00;;
4460;SDS011;2243;48.812;9.232;2022-07-18T07:08:46;4.30;;;3.90;;
4460;SDS011;2243;48.812;9.232;2022-07-18T07:11:17;9.83;;;4.73;;
4460;SDS011;2243;48.812;9.232;2022-07-18T07:13:48;4.17;;;3.90;;
4460;SDS011;2243;48.812;9.232;2022-07-18T07:16:19;5.20;;;4.13;;
4460;SDS011;2243;48.812;9.232;2022-07-18T07:18:50;4.50;;;4.10;;
4460;SDS011;2243;48.812;9.232;2022-07-18T07:21:21;4.60;;;4.17;;
4460;SDS011;2243;48.812;9.232;2022-07-18T07:23:52;5.87;;;3.83;;
4460;SDS011;2243;48.812;9.232;2022-07-18T07:26:24;4.97;;;3.77;;
4460;SDS011;2243;48.812;9.232;2022-07-18T07:28:55;4.07;;;3.77;;
4460;SDS011;2243;48.812;9.232;2022-07-18T07:31:26;4.53;;;3.77;;
4460;SDS011;2243;48.812;9.232;2022-07-18T07:33:58;3.83;;;3.53;;
4460;SDS011;2243;48.812;9.232;2022-07-18T07:36:35;5.50;;;3.70;;
4460;SDS011;2243;48.812;9.232;2022-07-18T07:39:06;4.90;;;3.33;;
4460;SDS011;2243;48.812;9.232;2022-07-18T07:41:37;3.90;;;3.23;;
4460;SDS011;2243;48.812;9.232;2022-07-18T07:44:08;4.20;;;3.80;;
4460;SDS011;2243;48.812;9.232;2022-07-18T07:46:39;3.90;;;3.20;;
4460;SDS011;2243;48.812;9.232;2022-07-18T07:49:10;7.40;;;3.17;;
4460;SDS011;2243;48.812;9.232;2022-07-18T07:51:41;6.13;;;3.17;;
4460;SDS011;2243;48.812;9.232;2022-07-18T07:54:13;3.10;;;2.90;;
4460;SDS011;2243;48.812;9.232;2022-07-18T07:56:44;3.37;;;3.13;;
4460;SDS011;2243;48.812;9.232;2022-07-18T07:59:15;3.53;;;3.33;;
4460;SDS011;2243;48.812;9.232;2022-07-18T08:01:45;3.03;;;2.83;;
4460;SDS011;2243;48.812;9.232;2022-07-18T08:04:17;3.53;;;3.27;;
4460;SDS011;2243;48.812;9.232;2022-07-18T08:06:48;3.17;;;2.90;;
4460;SDS011;2243;48.812;9.232;2022-07-18T08:09:19;3.13;;;2.93;;
4460;SDS011;2243;48.812;9.232;2022-07-18T08:11:50;2.97;;;2.77;;
4460;SDS011;2243;48.812;9.232;2022-07-18T08:14:21;2.80;;;2.60;;
4460;SDS011;2243;48.812;9.232;2022-07-18T08:16:52;3.17;;;2.90;;
4460;SDS011;2243;48.812;9.232;2022-07-18T08:19:23;5.83;;;2.53;;
4460;SDS011;2243;48.812;9.232;2022-07-18T08:21:54;5.17;;;2.93;;
4460;SDS011;2243;48.812;9.232;2022-07-18T08:24:25;3.50;;;3.20;;
4460;SDS011;2243;48.812;9.232;2022-07-18T08:26:56;3.07;;;2.57;;
4460;SDS011;2243;48.812;9.232;2022-07-18T08:29:27;3.33;;;2.60;;
4460;SDS011;2243;48.812;9.232;2022-07-18T08:32:18;4.33;;;2.83;;
4460;SDS011;2243;48.812;9.232;2022-07-18T08:34:50;2.80;;;2.60;;
4460;SDS011;2243;48.812;9.232;2022-07-18T08:37:23;2.50;;;2.40;;
4460;SDS011;2243;48.812;9.232;2022-07-18T08:39:54;7.53;;;2.77;;
4460;SDS011;2243;48.812;9.232;2022-07-18T08:42:25;7.07;;;2.80;;
4460;SDS011;2243;48.812;9.232;2022-07-18T08:44:57;5.37;;;2.80;;
4460;SDS011;2243;48.812;9.232;2022-07-18T08:47:28;3.17;;;2.87;;
4460;SDS011;2243;48.812;9.232;2022-07-18T08:50:01;2.40;;;2.20;;
4460;SDS011;2243;48.812;9.232;2022-07-18T08:52:33;2.87;;;2.67;;
4460;SDS011;2243;48.812;9.232;2022-07-18T08:55:22;2.80;;;2.60;;
4460;SDS011;2243;48.812;9.232;2022-07-18T08:57:55;2.70;;;2.50;;
4460;SDS011;2243;48.812;9.232;2022-07-18T09:00:38;3.60;;;2.83;;
4460;SDS011;2243;48.812;9.232;2022-07-18T09:03:09;3.77;;;2.60;;
4460;SDS011;2243;48.812;9.232;2022-07-18T09:05:41;2.80;;;2.70;;
4460;SDS011;2243;48.812;9.232;2022-07-18T09:08:14;3.30;;;2.87;;
4460;SDS011;2243;48.812;9.232;2022-07-18T09:10:51;2.63;;;2.40;;
4460;SDS011;2243;48.812;9.232;2022-07-18T09:13:39;2.60;;;2.50;;
4460;SDS011;2243;48.812;9.232;2022-07-18T09:16:13;2.80;;;2.60;;
4460;SDS011;2243;48.812;9.232;2022-07-18T09:18:46;5.20;;;2.60;;
4460;SDS011;2243;48.812;9.232;2022-07-18T09:21:19;4.10;;;2.77;;
4460;SDS011;2243;48.812;9.232;2022-07-18T09:23:52;2.27;;;2.17;;
4460;SDS011;2243;48.812;9.232;2022-07-18T09:26:42;2.53;;;2.33;;
4460;SDS011;2243;48.812;9.232;2022-07-18T09:29:16;3.40;;;3.20;;
4460;SDS011;2243;48.812;9.232;2022-07-18T09:31:57;2.87;;;2.67;;
4460;SDS011;2243;48.812;9.232;2022-07-18T09:34:38;2.87;;;2.67;;
4460;SDS011;2243;48.812;9.232;2022-07-18T09:37:12;2.70;;;2.60;;
4460;SDS011;2243;48.812;9.232;2022-07-18T09:39:43;4.27;;;3.20;;
4460;SDS011;2243;48.812;9.232;2022-07-18T09:44:56;3.10;;;2.73;;
4460;SDS011;2243;48.812;9.232;2022-07-18T09:47:30;3.80;;;2.77;;
4460;SDS011;2243;48.812;9.232;2022-07-18T09:50:01;5.10;;;2.90;;
4460;SDS011;2243;48.812;9.232;2022-07-18T09:52:32;3.23;;;2.83;;
4460;SDS011;2243;48.812;9.232;2022-07-18T09:55:04;3.03;;;2.83;;
4460;SDS011;2243;48.812;9.232;2022-07-18T09:57:36;2.60;;;2.43;;
4460;SDS011;2243;48.812;9.232;2022-07-18T10:00:07;2.23;;;2.13;;
4460;SDS011;2243;48.812;9.232;2022-07-18T10:02:39;3.37;;;2.53;;
4460;SDS011;2243;48.812;9.232;2022-07-18T10:05:10;3.27;;;2.70;;
4460;SDS011;2243;48.812;9.232;2022-07-18T10:07:41;3.83;;;2.70;;
4460;SDS011;2243;48.812;9.232;2022-07-18T10:10:14;2.83;;;2.63;;
4460;SDS011;2243;48.812;9.232;2022-07-18T10:12:46;2.43;;;2.23;;
4460;SDS011;2243;48.812;9.232;2022-07-18T10:15:17;3.07;;;2.97;;
4460;SDS011;2243;48.812;9.232;2022-07-18T10:17:50;4.63;;;3.13;;
4460;SDS011;2243;48.812;9.232;2022-07-18T10:20:26;3.23;;;3.07;;
4460;SDS011;2243;48.812;9.232;2022-07-18T10:23:40;3.33;;;2.90;;
4460;SDS011;2243;48.812;9.232;2022-07-18T10:26:20;2.80;;;2.50;;
4460;SDS011;2243;48.812;9.232;2022-07-18T10:31:27;2.83;;;2.60;;
4460;SDS011;2243;48.812;9.232;2022-07-18T10:39:41;2.80;;;2.70;;
4460;SDS011;2243;48.812;9.232;2022-07-18T10:42:16;2.70;;;2.60;;
4460;SDS011;2243;48.812;9.232;2022-07-18T10:44:50;2.80;;;2.60;;
4460;SDS011;2243;48.812;9.232;2022-07-18T10:47:27;2.90;;;2.67;;
4460;SDS011;2243;48.812;9.232;2022-07-18T10:50:00;2.90;;;2.13;;
4460;SDS011;2243;48.812;9.232;2022-07-18T11:00:27;2.53;;;2.43;;
4460;SDS011;2243;48.812;9.232;2022-07-18T11:03:11;2.80;;;2.60;;
4460;SDS011;2243;48.812;9.232;2022-07-18T11:05:54;2.70;;;2.30;;
4460;SDS011;2243;48.812;9.232;2022-07-18T11:08:29;2.90;;;2.60;;
4460;SDS011;2243;48.812;9.232;2022-07-18T11:13:40;2.73;;;2.60;;
4460;SDS011;2243;48.812;9.232;2022-07-18T11:16:22;3.60;;;2.50;;
4460;SDS011;2243;48.812;9.232;2022-07-18T11:24:08;2.57;;;2.47;;
4460;SDS011;2243;48.812;9.232;2022-07-18T11:26:46;2.53;;;2.33;;
4460;SDS011;2243;48.812;9.232;2022-07-18T11:29:21;4.53;;;2.40;;
4460;SDS011;2243;48.812;9.232;2022-07-18T11:31:56;2.30;;;2.20;;
4460;SDS011;2243;48.812;9.232;2022-07-18T11:34:29;1.73;;;1.63;;
4460;SDS011;2243;48.812;9.232;2022-07-18T11:37:12;2.60;;;2.13;;
4460;SDS011;2243;48.812;9.232;2022-07-18T11:39:47;1.95;;;1.85;;
4460;SDS011;2243;48.812;9.232;2022-07-18T11:42:33;1.80;;;1.70;;
4460;SDS011;2243;48.812;9.232;2022-07-18T11:45:10;2.10;;;2.00;;
4460;SDS011;2243;48.812;9.232;2022-07-18T11:47:47;1.60;;;1.55;;
4460;SDS011;2243;48.812;9.232;2022-07-18T11:50:34;4.40;;;1.65;;
4460;SDS011;2243;48.812;9.232;2022-07-18T11:53:06;2.58;;;2.45;;
4460;SDS011;2243;48.812;9.232;2022-07-18T11:55:39;1.60;;;1.50;;
4460;SDS011;2243;48.812;9.232;2022-07-18T11:58:14;1.85;;;1.73;;
4460;SDS011;2243;48.812;9.232;2022-07-18T12:00:46;3.42;;;1.88;;
4460;SDS011;2243;48.812;9.232;2022-07-18T12:03:20;4.65;;;1.70;;
4460;SDS011;2243;48.812;9.232;2022-07-18T12:05:53;2.58;;;2.03;;
4460;SDS011;2243;48.812;9.232;2022-07-18T12:08:29;2.38;;;2.28;;
4460;SDS011;2243;48.812;9.232;2022-07-18T12:11:16;2.70;;;2.50;;
4460;SDS011;2243;48.812;9.232;2022-07-18T12:16:48;1.98;;;1.88;;
4460;SDS011;2243;48.812;9.232;2022-07-18T12:19:38;2.47;;;2.28;;
4460;SDS011;2243;48.812;9.232;2022-07-18T12:22:10;1.92;;;1.83;;
4460;SDS011;2243;48.812;9.232;2022-07-18T12:24:52;2.08;;;1.98;;
4460;SDS011;2243;48.812;9.232;2022-07-18T12:27:34;2.25;;;2.15;;
4460;SDS011;2243;48.812;9.232;2022-07-18T12:32:57;1.88;;;1.77;;
4460;SDS011;2243;48.812;9.232;2022-07-18T12:35:30;2.23;;;2.00;;
4460;SDS011;2243;48.812;9.232;2022-07-18T12:38:07;2.70;;;2.00;;
4460;SDS011;2243;48.812;9.232;2022-07-18T12:40:45;3.20;;;1.83;;
4460;SDS011;2243;48.812;9.232;2022-07-18T12:46:09;2.27;;;2.07;;
4460;SDS011;2243;48.812;9.232;2022-07-18T12:48:41;2.63;;;2.30;;
4460;SDS011;2243;48.812;9.232;2022-07-18T12:51:12;2.07;;;1.77;;
4460;SDS011;2243;48.812;9.232;2022-07-18T12:53:43;1.73;;;1.63;;
4460;SDS011;2243;48.812;9.232;2022-07-18T12:56:14;2.38;;;2.28;;
4460;SDS011;2243;48.812;9.232;2022-07-18T12:58:45;1.90;;;1.80;;
4460;SDS011;2243;48.812;9.232;2022-07-18T13:01:16;2.60;;;1.70;;
4460;SDS011;2243;48.812;9.232;2022-07-18T13:03:47;2.70;;;1.63;;
4460;SDS011;2243;48.812;9.232;2022-07-18T13:06:18;2.00;;;1.90;;
4460;SDS011;2243;48.812;9.232;2022-07-18T13:08:50;4.77;;;1.90;;
4460;SDS011;2243;48.812;9.232;2022-07-18T13:11:21;1.97;;;1.87;;
4460;SDS011;2243;48.812;9.232;2022-07-18T13:13:59;2.22;;;2.03;;
4460;SDS011;2243;48.812;9.232;2022-07-18T13:16:30;1.90;;;1.80;;
4460;SDS011;2243;48.812;9.232;2022-07-18T13:19:01;3.90;;;2.37;;
4460;SDS011;2243;48.812;9.232;2022-07-18T13:21:32;2.40;;;2.13;;
4460;SDS011;2243;48.812;9.232;2022-07-18T13:24:03;1.90;;;1.80;;
4460;SDS011;2243;48.812;9.232;2022-07-18T13:26:35;2.00;;;1.90;;
4460;SDS011;2243;48.812;9.232;2022-07-18T13:29:06;1.73;;;1.73;;
4460;SDS011;2243;48.812;9.232;2022-07-18T13:31:38;2.28;;;1.90;;
4460;SDS011;2243;48.812;9.232;2022-07-18T13:34:09;2.00;;;1.90;;
4460;SDS011;2243;48.812;9.232;2022-07-18T13:36:40;2.22;;;2.00;;
4460;SDS011;2243;48.812;9.232;2022-07-18T13:39:11;1.70;;;1.60;;
4460;SDS011;2243;48.812;9.232;2022-07-18T13:41:42;1.95;;;1.85;;
4460;SDS011;2243;48.812;9.232;2022-07-18T13:44:17;2.58;;;2.38;;
4460;SDS011;2243;48.812;9.232;2022-07-18T13:46:48;2.20;;;2.10;;
4460;SDS011;2243;48.812;9.232;2022-07-18T13:49:19;2.25;;;2.10;;
4460;SDS011;2243;48.812;9.232;2022-07-18T13:51:50;2.75;;;2.15;;
4460;SDS011;2243;48.812;9.232;2022-07-18T13:54:21;1.77;;;1.67;;
4460;SDS011;2243;48.812;9.232;2022-07-18T13:56:53;1.80;;;1.70;;
4460;SDS011;2243;48.812;9.232;2022-07-18T13:59:24;2.33;;;2.17;;
4460;SDS011;2243;48.812;9.232;2022-07-18T14:01:55;2.03;;;2.00;;
4460;SDS011;2243;48.812;9.232;2022-07-18T14:04:26;2.03;;;1.92;;
4460;SDS011;2243;48.812;9.232;2022-07-18T14:07:00;1.83;;;1.73;;
4460;SDS011;2243;48.812;9.232;2022-07-18T14:09:32;1.60;;;1.50;;
4460;SDS011;2243;48.812;9.232;2022-07-18T14:12:03;1.60;;;1.50;;
4460;SDS011;2243;48.812;9.232;2022-07-18T14:14:35;1.90;;;1.80;;
4460;SDS011;2243;48.812;9.232;2022-07-18T14:17:06;1.75;;;1.65;;
4460;SDS011;2243;48.812;9.232;2022-07-18T14:19:37;1.75;;;1.70;;
4460;SDS011;2243;48.812;9.232;2022-07-18T14:22:08;6.47;;;1.70;;
4460;SDS011;2243;48.812;9.232;2022-07-18T14:24:40;1.80;;;1.67;;
4460;SDS011;2243;48.812;9.232;2022-07-18T14:27:11;1.80;;;1.63;;
4460;SDS011;2243;48.812;9.232;2022-07-18T14:29:42;1.83;;;1.65;;
4460;SDS011;2243;48.812;9.232;2022-07-18T14:32:13;2.53;;;1.90;;
4460;SDS011;2243;48.812;9.232;2022-07-18T14:34:44;3.35;;;1.48;;
4460;SDS011;2243;48.812;9.232;2022-07-18T14:37:15;1.50;;;1.50;;
4460;SDS011;2243;48.812;9.232;2022-07-18T14:39:46;3.08;;;1.50;;
4460;SDS011;2243;48.812;9.232;2022-07-18T14:42:25;2.88;;;1.70;;
4460;SDS011;2243;48.812;9.232;2022-07-18T14:44:57;2.00;;;1.90;;
4460;SDS011;2243;48.812;9.232;2022-07-18T14:47:28;2.28;;;1.60;;
4460;SDS011;2243;48.812;9.232;2022-07-18T14:50:03;1.88;;;1.75;;
4460;SDS011;2243;48.812;9.232;2022-07-18T14:52:36;1.75;;;1.65;;
4460;SDS011;2243;48.812;9.232;2022-07-18T14:55:08;3.38;;;1.80;;
4460;SDS011;2243;48.812;9.232;2022-07-18T14:57:40;1.67;;;1.58;;
4460;SDS011;2243;48.812;9.232;2022-07-18T15:00:11;2.42;;;1.60;;
4460;SDS011;2243;48.812;9.232;2022-07-18T15:02:42;2.58;;;1.60;;
4460;SDS011;2243;48.812;9.232;2022-07-18T15:05:14;2.03;;;1.80;;
4460;SDS011;2243;48.812;9.232;2022-07-18T15:07:44;2.45;;;1.40;;
4460;SDS011;2243;48.812;9.232;2022-07-18T15:10:16;1.58;;;1.58;;
4460;SDS011;2243;48.812;9.232;2022-07-18T15:12:47;1.25;;;1.15;;
4460;SDS011;2243;48.812;9.232;2022-07-18T15:15:18;2.22;;;1.70;;
4460;SDS011;2243;48.812;9.232;2022-07-18T15:17:49;1.80;;;1.70;;
4460;SDS011;2243;48.812;9.232;2022-07-18T15:20:20;2.28;;;1.35;;
4460;SDS011;2243;48.812;9.232;2022-07-18T15:22:51;1.42;;;1.33;;
4460;SDS011;2243;48.812;9.232;2022-07-18T15:25:22;1.77;;;1.67;;
4460;SDS011;2243;48.812;9.232;2022-07-18T15:27:53;3.25;;;3.05;;
4460;SDS011;2243;48.812;9.232;2022-07-18T15:30:24;3.35;;;1.92;;
4460;SDS011;2243;48.812;9.232;2022-07-18T15:33:15;1.70;;;1.58;;
4460;SDS011;2243;48.812;9.232;2022-07-18T15:35:52;1.50;;;1.40;;
4460;SDS011;2243;48.812;9.232;2022-07-18T15:38:23;1.52;;;1.42;;
4460;SDS011;2243;48.812;9.232;2022-07-18T15:40:54;1.30;;;1.30;;
4460;SDS011;2243;48.812;9.232;2022-07-18T15:43:25;1.45;;;1.35;;
4460;SDS011;2243;48.812;9.232;2022-07-18T15:45:56;1.48;;;1.38;;
4460;SDS011;2243;48.812;9.232;2022-07-18T15:48:28;1.10;;;1.10;;
4460;SDS011;2243;48.812;9.232;2022-07-18T15:50:59;2.20;;;1.38;;
4460;SDS011;2243;48.812;9.232;2022-07-18T15:53:30;1.75;;;1.65;;
4460;SDS011;2243;48.812;9.232;2022-07-18T15:56:01;1.48;;;1.38;;
4460;SDS011;2243;48.812;9.232;2022-07-18T15:58:33;1.60;;;1.50;;
4460;SDS011;2243;48.812;9.232;2022-07-18T16:01:04;2.15;;;2.05;;
4460;SDS011;2243;48.812;9.232;2022-07-18T16:03:35;2.35;;;1.50;;
4460;SDS011;2243;48.812;9.232;2022-07-18T16:06:07;4.10;;;1.73;;
4460;SDS011;2243;48.812;9.232;2022-07-18T16:08:38;1.30;;;1.30;;
4460;SDS011;2243;48.812;9.232;2022-07-18T16:11:09;6.68;;;1.77;;
4460;SDS011;2243;48.812;9.232;2022-07-18T16:13:41;1.25;;;1.25;;
4460;SDS011;2243;48.812;9.232;2022-07-18T16:16:12;2.25;;;1.73;;
4460;SDS011;2243;48.812;9.232;2022-07-18T16:18:43;1.80;;;1.70;;
4460;SDS011;2243;48.812;9.232;2022-07-18T16:21:14;1.63;;;1.52;;
4460;SDS011;2243;48.812;9.232;2022-07-18T16:23:45;4.10;;;2.00;;